Time;durP1;ratioP1;P1;durP2;ratioP2;P2;SDS_P1;SDS_P2;PMS_P1;PMS_P2;Temp;Humidity;BMP_temperature;BMP_pressure;BME280_temperature;BME280_humidity;BME280_pressure;Samples;Min_cycle;Max_cycle;Signal;HPM_P1;HPM_P2
2021/10/19 00:01:31;;;;;;;2.13;1.35;;;13.90;85.40;;;;;;5094544;28;20043;-75
2021/10/19 00:03:57;;;;;;;2.08;1.38;;;13.90;85.50;;;;;;5093910;28;20524;-74
2021/10/19 00:06:23;;;;;;;1.85;1.30;;;13.80;85.50;;;;;;5075832;28;20036;-75
2021/10/19 00:08:48;;;;;;;1.92;1.30;;;13.90;85.60;;;;;;5093918;28;20139;-74
2021/10/19 00:11:14;;;;;;;1.65;1.30;;;13.90;85.70;;;;;;5094431;28;20551;-74
2021/10/19 00:13:41;;;;;;;1.55;1.00;;;13.90;85.70;;;;;;5058997;28;20036;-74
2021/10/19 00:16:09;;;;;;;3.25;1.50;;;13.90;85.70;;;;;;5093610;28;20135;-74
2021/10/19 00:18:35;;;;;;;2.15;1.30;;;13.90;85.70;;;;;;5093346;28;20126;-74
2021/10/19 00:21:02;;;;;;;1.77;1.27;;;13.90;85.70;;;;;;5075177;28;20482;-75
2021/10/19 00:23:27;;;;;;;1.48;1.10;;;13.80;85.70;;;;;;5058441;28;20421;-75
2021/10/19 00:25:53;;;;;;;1.92;1.27;;;13.80;85.70;;;;;;5093397;28;20052;-75
2021/10/19 00:28:19;;;;;;;1.85;1.40;;;13.80;85.80;;;;;;5093376;28;20044;-74
2021/10/19 00:30:45;;;;;;;2.38;1.50;;;13.90;86.00;;;;;;5093471;28;20040;-75
2021/10/19 00:33:11;;;;;;;2.05;1.50;;;13.90;85.90;;;;;;5075323;28;20084;-75
2021/10/19 00:35:37;;;;;;;2.33;1.73;;;14.00;86.00;;;;;;5075512;28;20048;-75
2021/10/19 00:38:02;;;;;;;3.15;1.60;;;13.90;85.90;;;;;;5093177;28;20123;-75
2021/10/19 00:40:31;;;;;;;1.88;1.30;;;14.00;85.80;;;;;;5074902;28;20556;-75
2021/10/19 00:42:57;;;;;;;2.33;1.50;;;14.00;85.70;;;;;;5093397;28;20068;-75
2021/10/19 00:45:23;;;;;;;3.20;1.50;;;14.00;85.70;;;;;;5058396;28;20405;-74
2021/10/19 00:47:51;;;;;;;2.97;1.60;;;14.00;85.70;;;;;;5074820;28;20036;-75
2021/10/19 00:50:18;;;;;;;2.05;1.38;;;14.00;85.80;;;;;;5093419;28;20126;-74
2021/10/19 00:52:47;;;;;;;1.70;1.30;;;13.90;85.80;;;;;;5074877;28;20032;-74
2021/10/19 00:55:13;;;;;;;2.47;1.55;;;13.90;85.90;;;;;;5058169;28;20039;-75
2021/10/19 00:57:39;;;;;;;2.53;1.50;;;13.90;85.90;;;;;;5093165;28;20036;-74
2021/10/19 01:00:09;;;;;;;1.85;1.25;;;13.90;86.00;;;;;;5092925;28;20133;-75
2021/10/19 01:02:35;;;;;;;1.77;1.27;;;13.90;86.00;;;;;;5072740;28;20048;-74
2021/10/19 01:05:02;;;;;;;1.70;1.27;;;13.90;86.10;;;;;;5093411;28;20609;-75
2021/10/19 01:07:29;;;;;;;2.60;1.52;;;13.90;86.20;;;;;;5092884;28;20040;-75
2021/10/19 01:09:55;;;;;;;2.50;1.52;;;13.90;86.20;;;;;;5092800;28;20051;-75
2021/10/19 01:12:21;;;;;;;3.17;1.58;;;13.80;86.20;;;;;;5058408;28;20040;-74
2021/10/19 01:14:47;;;;;;;2.58;1.40;;;13.80;86.30;;;;;;5092678;28;20097;-75
2021/10/19 01:17:12;;;;;;;2.50;1.70;;;13.80;86.20;;;;;;5092753;28;20071;-75
2021/10/19 01:19:38;;;;;;;2.70;1.83;;;13.80;86.20;;;;;;5092896;28;20406;-75
2021/10/19 01:22:06;;;;;;;1.83;1.40;;;13.90;86.20;;;;;;5092730;28;20039;-74
2021/10/19 01:24:32;;;;;;;1.88;1.55;;;13.80;86.20;;;;;;5092909;28;20048;-75
2021/10/19 01:26:58;;;;;;;2.92;1.70;;;13.80;86.30;;;;;;5074963;28;20381;-75
2021/10/19 01:29:23;;;;;;;2.75;1.40;;;13.80;86.40;;;;;;5075153;28;20496;-75
2021/10/19 01:31:52;;;;;;;1.83;1.35;;;13.80;86.40;;;;;;5057776;28;20040;-75
2021/10/19 01:34:19;;;;;;;2.97;1.83;;;13.80;86.40;;;;;;5074418;28;20050;-75
2021/10/19 01:36:45;;;;;;;2.22;1.50;;;13.80;86.50;;;;;;5092434;28;20120;-75
2021/10/19 01:39:11;;;;;;;1.85;1.40;;;13.80;86.60;;;;;;5092905;28;20092;-75
2021/10/19 01:41:38;;;;;;;2.53;1.60;;;13.80;86.60;;;;;;5075049;28;20083;-75
2021/10/19 01:44:04;;;;;;;2.75;1.83;;;13.80;86.70;;;;;;5092325;28;20401;-75
2021/10/19 01:46:31;;;;;;;2.88;1.77;;;13.80;86.60;;;;;;5092350;28;20525;-75
2021/10/19 01:48:56;;;;;;;2.63;1.63;;;13.80;86.60;;;;;;5057556;28;20050;-75
2021/10/19 01:51:24;;;;;;;2.40;1.58;;;13.90;86.60;;;;;;5092490;28;20048;-75
2021/10/19 01:53:50;;;;;;;2.10;1.30;;;13.90;86.60;;;;;;5092054;28;20046;-74
2021/10/19 01:56:16;;;;;;;2.30;1.60;;;13.90;86.60;;;;;;5073907;28;20456;-75
2021/10/19 01:58:42;;;;;;;2.45;1.42;;;13.90;86.70;;;;;;5073868;28;20073;-75
2021/10/19 02:01:08;;;;;;;2.25;1.50;;;13.90;86.70;;;;;;5092553;28;20044;-75
2021/10/19 02:03:33;;;;;;;2.85;1.63;;;13.90;86.70;;;;;;5057084;28;20044;-74
2021/10/19 02:05:59;;;;;;;3.45;1.70;;;14.00;86.70;;;;;;5074064;28;20040;-75
2021/10/19 02:08:25;;;;;;;2.50;1.77;;;13.90;86.70;;;;;;5073825;28;20135;-75
2021/10/19 02:10:51;;;;;;;2.13;1.50;;;14.00;86.70;;;;;;5073892;28;20122;-74
2021/10/19 02:13:17;;;;;;;2.72;1.50;;;14.00;86.70;;;;;;5074280;28;20047;-74
2021/10/19 02:15:43;;;;;;;2.20;1.48;;;14.00;86.70;;;;;;5076890;28;20036;-75
2021/10/19 02:18:09;;;;;;;2.05;1.38;;;14.00;86.80;;;;;;5095704;28;20501;-75
2021/10/19 02:20:37;;;;;;;2.42;1.40;;;14.00;86.80;;;;;;5077158;28;20048;-75
2021/10/19 02:23:04;;;;;;;2.42;1.50;;;14.00;86.90;;;;;;5077186;28;20047;-75
2021/10/19 02:25:30;;;;;;;1.90;1.30;;;14.00;86.90;;;;;;5060653;28;20477;-75
2021/10/19 02:27:57;;;;;;;2.20;1.38;;;14.00;87.00;;;;;;5077730;28;20043;-75
2021/10/19 02:30:25;;;;;;;2.30;1.38;;;14.00;87.00;;;;;;5095617;28;20036;-75
2021/10/19 02:32:53;;;;;;;2.25;1.30;;;14.00;87.00;;;;;;5060843;28;20091;-74
2021/10/19 02:35:20;;;;;;;1.73;1.20;;;14.00;87.10;;;;;;5095453;28;20512;-75
2021/10/19 02:37:47;;;;;;;1.70;1.30;;;14.00;87.20;;;;;;5076803;28;20503;-75
2021/10/19 02:40:15;;;;;;;1.35;1.10;;;14.00;87.20;;;;;;5076957;28;20136;-74
2021/10/19 02:42:41;;;;;;;1.60;1.10;;;14.00;87.20;;;;;;5061052;28;20040;-74
2021/10/19 02:45:09;;;;;;;1.85;1.13;;;14.00;87.30;;;;;;5094804;28;20068;-75
2021/10/19 02:47:35;;;;;;;1.95;1.30;;;14.00;87.30;;;;;;5094949;28;20040;-74
2021/10/19 02:50:01;;;;;;;2.55;1.45;;;14.00;87.40;;;;;;5094829;28;20127;-75
2021/10/19 02:52:27;;;;;;;2.53;1.60;;;14.00;87.50;;;;;;5095277;28;20035;-75
2021/10/19 02:54:53;;;;;;;2.38;1.52;;;14.00;87.50;;;;;;5077535;28;20044;-75
2021/10/19 02:57:21;;;;;;;2.05;1.35;;;14.00;87.50;;;;;;5095081;28;20051;-75
2021/10/19 02:59:47;;;;;;;2.35;1.38;;;14.10;87.50;;;;;;5077137;28;20043;-74
2021/10/19 03:02:13;;;;;;;1.95;1.30;;;14.10;87.40;;;;;;5077220;28;20044;-75
2021/10/19 03:04:39;;;;;;;1.83;1.20;;;14.10;87.40;;;;;;5076653;28;20044;-74
2021/10/19 03:07:05;;;;;;;1.98;1.30;;;14.10;87.40;;;;;;5076608;28;20032;-75
2021/10/19 03:09:32;;;;;;;3.05;1.70;;;14.10;87.40;;;;;;5094719;28;20375;-75
2021/10/19 03:11:58;;;;;;;1.90;1.38;;;14.20;87.40;;;;;;5094651;28;20055;-74
2021/10/19 03:14:23;;;;;;;2.45;1.70;;;14.20;87.40;;;;;;5094717;28;20040;-75
2021/10/19 03:16:49;;;;;;;2.20;1.42;;;14.30;87.40;;;;;;5076722;28;20044;-75
2021/10/19 03:19:15;;;;;;;3.03;1.90;;;14.30;87.40;;;;;;5095037;28;20055;-75
2021/10/19 03:21:40;;;;;;;2.78;1.77;;;14.30;87.40;;;;;;5077012;28;20135;-75
2021/10/19 03:24:06;;;;;;;2.30;1.63;;;14.30;87.40;;;;;;5094865;28;20055;-75
2021/10/19 03:26:32;;;;;;;2.90;1.92;;;14.30;87.40;;;;;;5076128;28;20040;-75
2021/10/19 03:28:58;;;;;;;2.97;1.80;;;14.30;87.50;;;;;;5059399;28;20040;-75
2021/10/19 03:31:24;;;;;;;2.25;1.77;;;14.40;87.60;;;;;;5059611;28;20051;-75
2021/10/19 03:33:57;;;;;;;2.97;2.00;;;14.40;87.60;;;;;;5076068;28;20043;-74
2021/10/19 03:36:22;;;;;;;2.75;1.90;;;14.30;87.70;;;;;;5076238;28;20495;-74
2021/10/19 03:38:48;;;;;;;3.28;1.83;;;14.40;87.80;;;;;;5076219;28;20074;-75
2021/10/19 03:41:14;;;;;;;2.55;1.90;;;14.30;87.90;;;;;;5094195;28;20035;-74
2021/10/19 03:43:39;;;;;;;3.42;1.90;;;14.40;88.10;;;;;;5076291;28;20032;-75
2021/10/19 03:46:05;;;;;;;2.92;1.67;;;14.40;88.10;;;;;;5075985;28;20511;-74
2021/10/19 03:48:31;;;;;;;2.33;1.67;;;14.40;88.20;;;;;;5076181;28;20096;-75
2021/10/19 03:50:57;;;;;;;2.95;1.90;;;14.30;88.30;;;;;;5093842;28;20469;-75
2021/10/19 03:53:23;;;;;;;2.47;1.80;;;14.30;88.30;;;;;;5094273;28;20043;-75
2021/10/19 03:55:49;;;;;;;2.67;1.80;;;14.40;88.50;;;;;;5094352;28;20048;-75
2021/10/19 03:58:15;;;;;;;3.20;1.90;;;14.30;88.50;;;;;;5075599;28;20555;-75
2021/10/19 04:00:41;;;;;;;2.05;1.50;;;14.30;88.70;;;;;;5093977;28;20032;-75
2021/10/19 04:03:08;;;;;;;2.20;1.58;;;14.30;88.70;;;;;;5094160;28;20043;-74
2021/10/19 04:05:34;;;;;;;2.83;1.92;;;14.30;88.80;;;;;;5076273;28;20042;-75
2021/10/19 04:08:00;;;;;;;3.00;1.85;;;14.30;88.90;;;;;;5076066;28;20044;-75
2021/10/19 04:10:25;;;;;;;2.90;2.00;;;14.30;89.00;;;;;;5075728;28;20047;-74
2021/10/19 04:12:51;;;;;;;4.13;2.13;;;14.30;89.00;;;;;;5059165;28;20036;-75
2021/10/19 04:15:17;;;;;;;3.83;2.20;;;14.40;89.20;;;;;;5075709;28;20512;-75
2021/10/19 04:17:43;;;;;;;2.90;1.92;;;14.40;89.20;;;;;;5076235;28;20032;-75
2021/10/19 04:20:09;;;;;;;4.32;2.35;;;14.40;89.20;;;;;;5075788;28;20477;-75
2021/10/19 04:22:35;;;;;;;3.00;2.00;;;14.40;89.20;;;;;;5093721;28;20042;-76
2021/10/19 04:25:01;;;;;;;3.33;2.05;;;14.40;89.20;;;;;;5094236;28;20044;-75
2021/10/19 04:27:27;;;;;;;3.38;2.00;;;14.40;89.90;;;;;;5094177;28;20440;-76
2021/10/19 04:29:53;;;;;;;3.50;2.15;;;14.40;89.30;;;;;;5093722;28;20485;-75
2021/10/19 04:32:19;;;;;;;3.00;2.00;;;14.40;89.30;;;;;;5058872;28;20508;-76
2021/10/19 04:34:45;;;;;;;2.53;1.73;;;14.40;89.40;;;;;;5093733;28;20040;-75
2021/10/19 04:37:10;;;;;;;3.70;2.25;;;14.50;89.50;;;;;;5058268;28;20094;-75
2021/10/19 04:39:36;;;;;;;2.85;1.60;;;14.40;89.40;;;;;;5075446;28;20066;-75
2021/10/19 04:42:02;;;;;;;2.38;1.55;;;14.40;89.50;;;;;;5075558;28;20032;-75
2021/10/19 04:44:28;;;;;;;2.30;1.67;;;14.40;89.50;;;;;;5093637;28;20465;-75
2021/10/19 04:46:55;;;;;;;1.85;1.60;;;14.50;89.60;;;;;;5093727;28;20116;-75
2021/10/19 04:49:21;;;;;;;2.55;1.70;;;14.50;89.70;;;;;;5075194;28;20551;-75
2021/10/19 04:51:46;;;;;;;3.75;2.00;;;14.40;89.70;;;;;;5093604;28;20048;-75
2021/10/19 04:54:12;;;;;;;2.65;1.85;;;14.50;89.80;;;;;;5093743;28;20039;-75
2021/10/19 04:56:38;;;;;;;3.35;2.00;;;14.40;89.80;;;;;;5058321;28;20040;-75
2021/10/19 04:59:05;;;;;;;3.05;1.85;;;14.50;89.90;;;;;;5093222;28;20835;-75
2021/10/19 05:01:30;;;;;;;3.00;1.88;;;14.40;89.90;;;;;;5093223;28;20366;-75
2021/10/19 05:03:56;;;;;;;3.00;1.80;;;14.40;90.00;;;;;;5058550;28;20043;-75
2021/10/19 05:06:22;;;;;;;3.15;1.83;;;14.40;90.00;;;;;;5093498;28;20032;-75
2021/10/19 05:08:48;;;;;;;2.75;1.85;;;14.40;90.10;;;;;;5093483;28;20072;-75
2021/10/19 05:11:13;;;;;;;3.60;1.98;;;14.40;90.10;;;;;;5074791;28;20044;-75
2021/10/19 05:13:39;;;;;;;2.67;1.77;;;14.40;90.10;;;;;;5074761;28;20082;-75
2021/10/19 05:16:05;;;;;;;3.10;2.10;;;14.30;90.20;;;;;;5074563;28;20066;-75
2021/10/19 05:18:31;;;;;;;2.00;1.58;;;14.30;90.20;;;;;;5092937;28;20397;-75
2021/10/19 05:20:57;;;;;;;2.22;1.70;;;14.30;90.20;;;;;;5092968;28;20032;-75
2021/10/19 05:23:22;;;;;;;2.38;1.60;;;14.40;90.30;;;;;;5093031;28;20463;-74
2021/10/19 05:25:48;;;;;;;2.28;1.60;;;14.30;90.30;;;;;;5093070;28;20040;-75
2021/10/19 05:28:14;;;;;;;2.40;1.80;;;14.30;90.40;;;;;;5074566;28;20040;-74
2021/10/19 05:30:40;;;;;;;2.10;1.50;;;14.30;90.40;;;;;;5093357;28;20466;-75
2021/10/19 05:33:06;;;;;;;2.10;1.48;;;14.30;90.40;;;;;;5074560;28;20036;-75
2021/10/19 05:35:32;;;;;;;2.65;1.73;;;14.30;90.50;;;;;;5074501;28;20032;-75
2021/10/19 05:37:59;;;;;;;2.47;1.70;;;14.20;90.40;;;;;;5093019;28;20039;-76
2021/10/19 05:40:25;;;;;;;1.92;1.50;;;14.30;90.50;;;;;;5092862;28;20385;-76
2021/10/19 05:42:51;;;;;;;3.03;1.92;;;14.20;90.50;;;;;;5057828;28;20036;-76
2021/10/19 05:45:18;;;;;;;2.08;1.60;;;14.20;90.50;;;;;;5093054;28;20039;-76
2021/10/19 05:47:45;;;;;;;2.22;1.40;;;14.20;90.60;;;;;;5092718;28;20040;-76
2021/10/19 05:50:12;;;;;;;2.00;1.48;;;14.30;90.60;;;;;;5072905;28;20036;-76
2021/10/19 05:52:39;;;;;;;2.40;1.58;;;14.20;90.60;;;;;;5093161;28;20044;-76
2021/10/19 05:55:05;;;;;;;1.42;1.30;;;14.20;90.60;;;;;;5092759;28;20051;-76
2021/10/19 05:57:30;;;;;;;1.70;1.30;;;14.20;90.60;;;;;;5072787;28;20052;-76
2021/10/19 05:59:56;;;;;;;2.35;1.52;;;14.20;90.70;;;;;;5092296;28;20105;-76
2021/10/19 06:02:22;;;;;;;1.58;1.08;;;14.20;90.70;;;;;;5074403;28;20040;-76
2021/10/19 06:04:48;;;;;;;1.48;1.20;;;14.20;90.70;;;;;;5074449;28;20028;-76
2021/10/19 06:07:13;;;;;;;1.50;1.02;;;14.20;90.70;;;;;;5074399;28;20123;-76
2021/10/19 06:09:39;;;;;;;2.10;1.00;;;14.20;90.70;;;;;;5057846;28;20044;-77
2021/10/19 06:12:05;;;;;;;1.70;1.30;;;14.30;90.80;;;;;;5074500;28;20046;-77
2021/10/19 06:14:32;;;;;;;1.83;1.50;;;14.20;90.80;;;;;;5057504;28;20476;-77
2021/10/19 06:16:58;;;;;;;1.65;1.30;;;14.30;90.80;;;;;;5041144;28;20131;-77
2021/10/19 06:19:23;;;;;;;1.48;1.30;;;14.30;90.80;;;;;;5057638;28;20126;-78
2021/10/19 06:21:49;;;;;;;1.63;1.23;;;14.30;90.80;;;;;;5057530;28;20067;-77
2021/10/19 06:24:15;;;;;;;2.45;1.60;;;14.30;90.80;;;;;;5074077;28;20046;-77
2021/10/19 06:26:41;;;;;;;1.50;1.20;;;14.30;90.80;;;;;;5074245;28;20377;-77
2021/10/19 06:29:09;;;;;;;1.40;1.17;;;14.30;90.80;;;;;;5091797;28;20047;-77
2021/10/19 06:31:36;;;;;;;1.83;1.30;;;14.30;90.80;;;;;;5057525;28;20133;-77
2021/10/19 06:34:02;;;;;;;1.75;1.40;;;14.40;90.80;;;;;;5073874;28;20040;-77
2021/10/19 06:36:28;;;;;;;1.58;1.15;;;14.40;90.80;;;;;;5092518;28;20032;-77
2021/10/19 06:38:54;;;;;;;2.13;1.33;;;14.30;90.80;;;;;;5074316;28;20043;-76
2021/10/19 06:41:20;;;;;;;1.73;1.20;;;14.40;90.90;;;;;;5092015;28;20047;-77
2021/10/19 06:43:46;;;;;;;2.05;1.40;;;14.40;90.90;;;;;;5092458;28;20040;-77
2021/10/19 06:46:12;;;;;;;1.48;1.20;;;14.40;90.90;;;;;;5092173;28;20469;-76
2021/10/19 06:48:38;;;;;;;1.40;1.10;;;14.40;90.90;;;;;;5073812;28;20048;-76
2021/10/19 06:51:05;;;;;;;1.17;1.08;;;14.40;90.90;;;;;;5057349;28;20097;-76
2021/10/19 06:53:32;;;;;;;1.20;1.10;;;14.40;90.90;;;;;;5074182;28;20051;-79
2021/10/19 06:55:58;;;;;;;1.23;0.90;;;14.40;90.90;;;;;;5074139;28;20512;-77
2021/10/19 06:58:25;;;;;;;1.27;1.10;;;14.50;91.00;;;;;;5057131;28;20447;-76
2021/10/19 07:00:52;;;;;;;1.55;1.10;;;14.50;91.00;;;;;;5075672;28;20032;-76
2021/10/19 07:03:18;;;;;;;2.17;1.20;;;14.50;91.00;;;;;;5077024;28;20039;-76
2021/10/19 07:05:44;;;;;;;1.15;0.98;;;14.50;91.00;;;;;;5095374;28;20520;-76
2021/10/19 07:08:10;;;;;;;2.17;1.60;;;14.60;91.00;;;;;;5076796;28;20036;-77
2021/10/19 07:10:36;;;;;;;1.63;1.30;;;14.60;91.00;;;;;;5076876;28;20103;-77
2021/10/19 07:13:03;;;;;;;1.52;1.15;;;14.70;91.10;;;;;;5077607;28;20063;-79
2021/10/19 07:15:34;;;;;;;1.30;1.02;;;14.60;91.00;;;;;;5063179;28;20044;-81
2021/10/19 07:18:08;;;;;;;;;;;14.70;91.00;;;;;;5049494;28;20024;-80
2021/10/19 07:20:34;;;;;;;1.40;1.00;;;14.60;90.90;;;;;;5046472;28;19928;-84
2021/10/19 07:23:00;;;;;;;1.52;1.15;;;14.70;90.90;;;;;;5039681;28;20041;-83
2021/10/19 07:25:32;;;;;;;1.20;1.10;;;14.70;91.00;;;;;;5026140;28;20049;-83
2021/10/19 07:28:00;;;;;;;1.40;1.05;;;14.80;91.00;;;;;;5010338;28;20037;-81
2021/10/19 07:30:26;;;;;;;1.25;1.15;;;14.70;91.00;;;;;;5005979;28;20045;-85
2021/10/19 07:32:53;;;;;;;1.65;1.20;;;14.70;91.00;;;;;;5027594;28;20056;-82
2021/10/19 07:35:19;;;;;;;1.73;1.30;;;14.80;91.00;;;;;;5026414;28;20497;-80
2021/10/19 07:37:45;;;;;;;1.25;1.05;;;14.80;91.00;;;;;;5023279;28;20084;-78
2021/10/19 07:40:12;;;;;;;1.58;1.00;;;14.80;91.00;;;;;;5055037;28;20072;-81
2021/10/19 07:42:39;;;;;;;2.13;1.50;;;14.80;91.10;;;;;;5055062;28;20092;-80
2021/10/19 07:45:08;;;;;;;1.95;1.23;;;14.90;91.10;;;;;;5037616;28;20072;-81
2021/10/19 07:47:37;;;;;;;1.80;1.40;;;14.90;91.10;;;;;;5023258;28;20047;-80
2021/10/19 07:50:03;;;;;;;1.98;1.50;;;14.90;91.10;;;;;;5038114;28;20053;-81
2021/10/19 07:52:29;;;;;;;1.40;1.10;;;14.90;91.00;;;;;;5094924;28;20047;-81
2021/10/19 07:55:02;;;;;;;1.83;1.30;;;15.00;91.10;;;;;;5023513;28;20070;-84
2021/10/19 07:57:28;;;;;;;1.10;1.00;;;15.00;91.10;;;;;;5038822;28;20037;-80
2021/10/19 07:59:54;;;;;;;1.48;1.20;;;15.00;91.10;;;;;;5035628;28;20494;-83
2021/10/19 08:02:21;;;;;;;1.20;0.98;;;15.00;91.10;;;;;;5045166;28;20044;-80
2021/10/19 08:04:46;;;;;;;1.35;1.15;;;15.00;91.10;;;;;;5052287;28;20152;-81
2021/10/19 08:07:12;;;;;;;1.73;1.17;;;15.00;91.10;;;;;;5024545;28;20494;-82
2021/10/19 08:09:38;;;;;;;1.42;1.10;;;15.10;91.20;;;;;;5020100;28;20053;-83
2021/10/19 08:12:04;;;;;;;1.90;1.42;;;15.20;91.20;;;;;;5034895;28;20465;-81
2021/10/19 08:14:30;;;;;;;1.40;1.27;;;15.10;91.10;;;;;;5035879;28;20041;-82
2021/10/19 08:16:56;;;;;;;1.45;1.30;;;15.20;91.20;;;;;;5018545;28;20049;-80
2021/10/19 08:19:27;;;;;;;1.30;1.17;;;15.20;91.20;;;;;;5054052;28;20123;-84
2021/10/19 08:21:52;;;;;;;1.70;1.40;;;15.20;91.20;;;;;;5020314;28;20037;-82
2021/10/19 08:24:18;;;;;;;1.35;1.23;;;15.20;91.20;;;;;;5052683;28;20434;-83
2021/10/19 08:26:44;;;;;;;1.65;1.35;;;15.20;91.20;;;;;;5053154;28;20044;-77
2021/10/19 08:29:10;;;;;;;1.45;1.20;;;15.30;91.20;;;;;;5059476;28;20051;-76
2021/10/19 08:31:36;;;;;;;1.83;1.30;;;15.20;91.20;;;;;;5093890;28;20036;-76
2021/10/19 08:34:01;;;;;;;1.73;1.30;;;15.30;91.20;;;;;;5093938;28;20128;-80
2021/10/19 08:36:27;;;;;;;1.63;1.42;;;15.30;91.20;;;;;;5075722;28;20036;-77
2021/10/19 08:38:53;;;;;;;1.60;1.27;;;15.40;91.20;;;;;;5078221;28;20511;-81
2021/10/19 08:41:19;;;;;;;1.95;1.45;;;15.40;91.20;;;;;;5061175;28;20115;-78
2021/10/19 08:43:46;;;;;;;1.77;1.25;;;15.40;91.20;;;;;;5062309;28;20520;-77
2021/10/19 08:46:14;;;;;;;1.75;1.33;;;15.50;91.30;;;;;;5084678;28;20042;-80
2021/10/19 08:48:41;;;;;;;2.13;1.40;;;15.60;91.30;;;;;;5059053;28;20047;-79
2021/10/19 08:51:08;;;;;;;1.65;1.42;;;15.50;91.20;;;;;;5059313;28;20071;-78
2021/10/19 08:53:37;;;;;;;1.52;1.33;;;15.60;91.30;;;;;;5093651;28;20033;-82
2021/10/19 08:56:04;;;;;;;1.27;1.17;;;15.60;91.30;;;;;;5042972;28;20533;-78
2021/10/19 08:58:30;;;;;;;1.60;1.33;;;15.60;91.30;;;;;;5078873;28;20375;-79
2021/10/19 09:01:11;;;;;;;1.30;1.20;;;15.70;91.30;;;;;;5076698;28;20040;-82
2021/10/19 09:03:53;;;;;;;1.88;1.30;;;15.70;91.30;;;;;;5075998;28;20102;-81
2021/10/19 09:06:32;;;;;;;1.48;1.10;;;15.90;91.30;;;;;;5075963;28;20119;-79
2021/10/19 09:09:05;;;;;;;1.42;1.20;;;15.80;91.30;;;;;;5074442;28;20489;-78
2021/10/19 09:11:46;;;;;;;2.00;1.38;;;15.80;91.30;;;;;;5077992;28;20040;-79
2021/10/19 09:14:12;;;;;;;;;;;16.00;91.40;;;;;;5075435;28;20039;-85
2021/10/19 09:16:41;;;;;;;1.20;1.10;;;15.90;91.20;;;;;;5072832;28;19912;-79
2021/10/19 09:19:08;;;;;;;1.10;1.00;;;15.90;91.20;;;;;;5057900;28;20040;-80
2021/10/19 09:21:33;;;;;;;1.35;1.20;;;15.90;91.20;;;;;;5092960;28;20257;-83
2021/10/19 09:24:25;;;;;;;1.17;1.00;;;16.00;91.30;;;;;;5065305;28;20059;-80
2021/10/19 09:26:55;;;;;;;1.55;1.00;;;16.00;91.30;;;;;;5077048;28;20432;-83
2021/10/19 09:29:21;;;;;;;1.55;1.05;;;16.00;91.30;;;;;;5066237;28;20032;-83
2021/10/19 09:31:57;;;;;;;2.55;1.10;;;16.00;91.30;;;;;;5076294;28;20493;-81
2021/10/19 09:34:26;;;;;;;1.20;1.10;;;16.00;91.30;;;;;;5059584;28;20040;-81
2021/10/19 09:36:52;;;;;;;1.50;1.13;;;16.10;91.40;;;;;;5092695;28;20040;-82
2021/10/19 09:39:39;;;;;;;1.10;1.00;;;16.10;91.40;;;;;;5057990;28;20130;-85
2021/10/19 09:42:09;;;;;;;0.85;0.80;;;16.10;91.40;;;;;;5073863;28;20048;-80
2021/10/19 09:44:36;;;;;;;1.13;1.00;;;16.10;91.40;;;;;;5075332;28;20055;-81
2021/10/19 09:47:04;;;;;;;0.95;0.95;;;16.20;91.50;;;;;;5058053;28;20490;-82
2021/10/19 09:49:30;;;;;;;1.20;1.08;;;16.10;91.40;;;;;;5093248;28;20035;-82
2021/10/19 09:52:00;;;;;;;1.20;0.90;;;16.20;91.50;;;;;;5075194;28;20040;-81
2021/10/19 09:54:29;;;;;;;1.45;1.02;;;16.20;91.50;;;;;;5092790;28;20036;-82
2021/10/19 09:56:59;;;;;;;0.90;0.80;;;16.20;91.50;;;;;;5058460;28;20068;-90
2021/10/19 09:59:25;;;;;;;0.82;0.82;;;16.20;91.50;;;;;;5075662;28;20553;-81
2021/10/19 10:01:51;;;;;;;0.68;0.60;;;16.30;91.60;;;;;;5093857;28;20036;-79
2021/10/19 10:04:18;;;;;;;0.75;0.75;;;16.20;91.80;;;;;;5078294;28;20384;-80
2021/10/19 10:06:45;;;;;;;1.02;0.80;;;16.30;91.60;;;;;;5090967;28;20032;-83
2021/10/19 10:09:11;;;;;;;0.77;0.77;;;16.30;91.50;;;;;;5093093;28;20522;-82
2021/10/19 10:11:40;;;;;;;0.80;0.75;;;16.30;91.60;;;;;;5074322;28;20069;-80
2021/10/19 10:14:07;;;;;;;0.70;0.70;;;16.40;91.60;;;;;;5074266;28;20090;-81
2021/10/19 10:16:49;;;;;;;1.00;0.90;;;16.40;91.60;;;;;;5055539;28;20110;-81
2021/10/19 10:19:27;;;;;;;1.00;0.90;;;16.40;91.60;;;;;;5073190;28;20040;-83
2021/10/19 10:21:54;;;;;;;0.77;0.77;;;16.40;91.60;;;;;;5059809;28;20086;-82
2021/10/19 10:24:30;;;;;;;1.27;0.85;;;16.40;91.60;;;;;;5074515;28;20040;-85
2021/10/19 10:27:06;;;;;;;0.90;0.90;;;16.40;91.60;;;;;;5057535;28;20123;-78
2021/10/19 10:29:43;;;;;;;1.10;0.90;;;16.50;91.60;;;;;;5055575;28;20072;-83
2021/10/19 10:32:29;;;;;;;0.98;0.90;;;16.50;91.70;;;;;;5075444;28;20032;-82
2021/10/19 10:38:31;;;;;;;1.23;1.00;;;16.60;91.70;;;;;;5009248;28;20065;-82
2021/10/19 10:41:09;;;;;;;1.50;1.10;;;16.60;91.60;;;;;;4982191;28;20046;-77
2021/10/19 10:43:36;;;;;;;0.77;0.77;;;16.60;91.60;;;;;;5013373;28;20392;-76
2021/10/19 10:46:16;;;;;;;1.33;1.08;;;16.70;91.60;;;;;;5013670;28;20084;-79
2021/10/19 10:48:42;;;;;;;1.40;1.13;;;16.60;91.60;;;;;;5013856;28;20123;-81
2021/10/19 10:51:10;;;;;;;1.55;1.08;;;16.70;91.60;;;;;;4996848;28;20140;-78
2021/10/19 10:53:39;;;;;;;2.53;1.33;;;16.70;91.60;;;;;;4965374;28;20045;-78
2021/10/19 10:56:08;;;;;;;1.60;1.05;;;16.70;91.60;;;;;;5013546;28;20049;-79
2021/10/19 10:58:37;;;;;;;1.75;1.30;;;16.80;91.60;;;;;;4996486;28;20140;-79
2021/10/19 11:01:20;;;;;;;1.88;1.55;;;16.80;91.60;;;;;;4996553;28;20038;-79
2021/10/19 11:03:50;;;;;;;2.10;1.35;;;16.80;91.60;;;;;;4980528;28;20099;-80
2021/10/19 11:06:18;;;;;;;2.10;1.42;;;16.90;91.60;;;;;;4996522;28;20100;-79
2021/10/19 11:08:47;;;;;;;2.55;1.65;;;17.00;91.70;;;;;;5013153;28;20115;-79
2021/10/19 11:11:16;;;;;;;2.17;1.70;;;16.90;91.70;;;;;;4997079;28;20053;-78
2021/10/19 11:13:54;;;;;;;2.10;1.67;;;17.00;91.70;;;;;;4985382;28;20038;-83
2021/10/19 11:16:39;;;;;;;1.73;1.45;;;17.00;91.70;;;;;;5060978;28;20067;-79
2021/10/19 11:19:24;;;;;;;1.60;1.42;;;17.00;91.70;;;;;;5094575;28;20051;-79
2021/10/19 11:21:53;;;;;;;2.58;1.63;;;17.10;91.70;;;;;;5076571;28;20043;-78
2021/10/19 11:24:21;;;;;;;2.55;1.77;;;17.10;91.70;;;;;;5060261;28;20159;-78
2021/10/19 11:26:48;;;;;;;2.17;1.50;;;17.20;91.70;;;;;;5060531;28;20051;-78
2021/10/19 11:29:14;;;;;;;2.00;1.73;;;17.20;91.60;;;;;;5093711;28;20072;-78
2021/10/19 11:31:40;;;;;;;2.70;1.65;;;17.40;91.60;;;;;;5076779;28;20062;-79
2021/10/19 11:34:07;;;;;;;2.50;1.67;;;17.20;91.60;;;;;;5094847;28;20623;-78
2021/10/19 11:36:34;;;;;;;2.13;1.58;;;17.30;91.60;;;;;;5060380;28;20044;-79
2021/10/19 11:39:03;;;;;;;2.78;1.90;;;17.40;91.70;;;;;;5076544;28;20044;-78
2021/10/19 11:41:31;;;;;;;3.25;2.00;;;17.30;91.60;;;;;;5076850;28;20047;-78
2021/10/19 11:44:00;;;;;;;3.00;2.00;;;17.30;91.70;;;;;;5077160;28;20100;-79
2021/10/19 11:46:30;;;;;;;3.45;2.15;;;17.30;91.70;;;;;;5076749;28;20044;-78
2021/10/19 11:49:01;;;;;;;2.95;2.00;;;17.30;91.80;;;;;;5060148;28;20066;-78
2021/10/19 11:51:28;;;;;;;2.95;1.90;;;17.30;91.80;;;;;;5076592;28;20054;-80
2021/10/19 11:53:56;;;;;;;2.28;1.60;;;17.40;91.80;;;;;;5094436;28;20047;-79
2021/10/19 11:56:22;;;;;;;3.35;2.30;;;17.40;91.80;;;;;;5094460;28;20523;-79
2021/10/19 11:58:53;;;;;;;2.97;2.25;;;17.40;91.80;;;;;;5060170;28;20055;-79
2021/10/19 12:01:21;;;;;;;3.15;2.17;;;17.40;91.80;;;;;;5074989;28;20050;-79
2021/10/19 12:03:58;;;;;;;3.50;2.25;;;17.50;91.80;;;;;;5059591;28;20447;-78
2021/10/19 12:06:28;;;;;;;3.60;2.60;;;17.50;91.80;;;;;;5075335;28;20036;-80
2021/10/19 12:08:55;;;;;;;4.10;2.47;;;17.50;91.80;;;;;;5075951;28;20051;-81
2021/10/19 12:11:24;;;;;;;4.05;2.70;;;17.50;91.80;;;;;;5059572;28;20051;-79
2021/10/19 12:13:58;;;;;;;3.70;2.47;;;17.50;91.80;;;;;;5074470;28;20068;-80
2021/10/19 12:16:27;;;;;;;3.83;2.20;;;17.50;91.80;;;;;;5058485;28;20059;-79
2021/10/19 12:18:55;;;;;;;4.32;2.25;;;17.50;91.80;;;;;;5094143;28;20044;-80
2021/10/19 12:21:20;;;;;;;3.20;2.13;;;17.50;91.90;;;;;;5076051;28;20036;-80
2021/10/19 12:23:52;;;;;;;2.90;1.98;;;17.40;91.90;;;;;;5075829;28;20088;-80
2021/10/19 12:26:21;;;;;;;2.95;2.10;;;17.40;92.00;;;;;;5075985;28;20402;-80
2021/10/19 12:28:51;;;;;;;2.85;2.00;;;17.40;92.00;;;;;;5076499;28;20122;-81
2021/10/19 12:31:19;;;;;;;2.88;2.03;;;17.40;92.00;;;;;;5094378;28;20469;-80
2021/10/19 12:33:52;;;;;;;3.53;2.35;;;17.60;92.10;;;;;;5058907;28;20052;-80
2021/10/19 12:36:22;;;;;;;2.65;2.00;;;17.40;92.10;;;;;;5093720;28;20071;-80
2021/10/19 12:38:48;;;;;;;3.10;2.20;;;17.40;92.10;;;;;;5059348;28;20044;-79
2021/10/19 12:41:17;;;;;;;3.00;2.13;;;17.40;92.10;;;;;;5075556;28;20036;-81
2021/10/19 12:43:47;;;;;;;3.17;2.00;;;17.40;92.10;;;;;;5075647;28;20489;-81
2021/10/19 12:46:14;;;;;;;4.53;2.67;;;17.40;92.10;;;;;;5075613;28;20043;-80
2021/10/19 12:48:40;;;;;;;3.50;2.47;;;17.40;92.10;;;;;;5093826;28;20040;-80
2021/10/19 12:51:09;;;;;;;3.03;2.20;;;17.40;92.20;;;;;;5042231;28;20043;-80
2021/10/19 12:53:35;;;;;;;3.40;2.45;;;17.40;92.20;;;;;;5093699;28;20036;-80